sensor_id;sensor_type;location;lat;lon;timestamp;pressure;altitude;pressure_sealevel;temperature;humidity
54920;BME280;63804;53.120;8.764;2023-06-10T00:02:06;101843.94;;;17.47;57.35
54920;BME280;63804;53.120;8.764;2023-06-10T00:04:35;101836.72;;;17.38;57.87
54920;BME280;63804;53.120;8.764;2023-06-10T00:07:06;101841.03;;;17.29;58.48
54920;BME280;63804;53.120;8.764;2023-06-10T00:09:36;101844.22;;;17.23;59.40
54920;BME280;63804;53.120;8.764;2023-06-10T00:12:08;101843.22;;;17.24;59.44
54920;BME280;63804;53.120;8.764;2023-06-10T00:14:40;101847.75;;;17.24;59.54
54920;BME280;63804;53.120;8.764;2023-06-10T00:17:08;101845.91;;;17.24;59.97
54920;BME280;63804;53.120;8.764;2023-06-10T00:19:36;101841.53;;;17.23;59.88
54920;BME280;63804;53.120;8.764;2023-06-10T00:22:05;101840.00;;;17.21;60.17
54920;BME280;63804;53.120;8.764;2023-06-10T00:24:32;101837.81;;;17.15;60.34
54920;BME280;63804;53.120;8.764;2023-06-10T00:26:59;101836.88;;;17.04;60.90
54920;BME280;63804;53.120;8.764;2023-06-10T00:29:27;101834.59;;;17.00;61.45
54920;BME280;63804;53.120;8.764;2023-06-10T00:31:54;101842.88;;;16.97;61.35
54920;BME280;63804;53.120;8.764;2023-06-10T00:34:24;101835.69;;;16.97;61.72
54920;BME280;63804;53.120;8.764;2023-06-10T00:36:52;101841.78;;;16.99;62.13
54920;BME280;63804;53.120;8.764;2023-06-10T00:39:19;101842.78;;;16.98;61.99
54920;BME280;63804;53.120;8.764;2023-06-10T00:41:46;101842.66;;;16.89;62.63
54920;BME280;63804;53.120;8.764;2023-06-10T00:44:13;101845.59;;;16.86;63.05
54920;BME280;63804;53.120;8.764;2023-06-10T00:46:40;101847.34;;;16.75;63.61
54920;BME280;63804;53.120;8.764;2023-06-10T00:49:08;101839.31;;;16.75;63.52
54920;BME280;63804;53.120;8.764;2023-06-10T00:51:35;101847.22;;;16.66;64.29
54920;BME280;63804;53.120;8.764;2023-06-10T00:54:03;101853.94;;;16.60;64.67
54920;BME280;63804;53.120;8.764;2023-06-10T00:56:32;101851.25;;;16.60;65.01
54920;BME280;63804;53.120;8.764;2023-06-10T00:59:01;101847.22;;;16.66;64.90
54920;BME280;63804;53.120;8.764;2023-06-10T01:01:28;101855.88;;;16.58;65.24
54920;BME280;63804;53.120;8.764;2023-06-10T01:03:56;101851.50;;;16.57;65.36
54920;BME280;63804;53.120;8.764;2023-06-10T01:06:51;101857.56;;;16.59;65.68
54920;BME280;63804;53.120;8.764;2023-06-10T01:09:28;101857.22;;;16.52;65.83
54920;BME280;63804;53.120;8.764;2023-06-10T01:12:10;101858.09;;;16.42;66.63
54920;BME280;63804;53.120;8.764;2023-06-10T01:14:39;101855.66;;;16.39;66.67
54920;BME280;63804;53.120;8.764;2023-06-10T01:17:12;101864.28;;;16.42;66.81
54920;BME280;63804;53.120;8.764;2023-06-10T01:19:39;101866.09;;;16.42;66.91
54920;BME280;63804;53.120;8.764;2023-06-10T01:22:07;101872.41;;;16.41;66.63
54920;BME280;63804;53.120;8.764;2023-06-10T01:24:35;101865.38;;;16.40;67.04
54920;BME280;63804;53.120;8.764;2023-06-10T01:27:05;101866.56;;;16.47;66.80
54920;BME280;63804;53.120;8.764;2023-06-10T01:29:41;101871.81;;;16.48;66.74
54920;BME280;63804;53.120;8.764;2023-06-10T01:32:23;101865.50;;;16.38;67.08
54920;BME280;63804;53.120;8.764;2023-06-10T01:34:54;101876.31;;;16.25;67.76
54920;BME280;63804;53.120;8.764;2023-06-10T01:37:24;101879.25;;;16.22;67.91
54920;BME280;63804;53.120;8.764;2023-06-10T01:39:57;101880.34;;;16.20;67.93
54920;BME280;63804;53.120;8.764;2023-06-10T01:42:25;101883.16;;;16.07;68.50
54920;BME280;63804;53.120;8.764;2023-06-10T01:44:53;101884.38;;;16.14;68.52
54920;BME280;63804;53.120;8.764;2023-06-10T01:47:20;101879.97;;;16.02;68.45
54920;BME280;63804;53.120;8.764;2023-06-10T01:49:47;101890.66;;;16.02;68.64
54920;BME280;63804;53.120;8.764;2023-06-10T01:52:14;101885.56;;;15.99;68.82
54920;BME280;63804;53.120;8.764;2023-06-10T01:54:42;101880.31;;;15.97;68.84
54920;BME280;63804;53.120;8.764;2023-06-10T01:57:09;101879.97;;;16.02;68.78
54920;BME280;63804;53.120;8.764;2023-06-10T01:59:37;101879.25;;;16.00;68.67
54920;BME280;63804;53.120;8.764;2023-06-10T02:02:05;101885.81;;;15.96;68.97
54920;BME280;63804;53.120;8.764;2023-06-10T02:04:32;101887.13;;;15.90;69.09
54920;BME280;63804;53.120;8.764;2023-06-10T02:06:59;101886.41;;;15.88;69.17
54920;BME280;63804;53.120;8.764;2023-06-10T02:09:31;101888.72;;;15.93;68.97
54920;BME280;63804;53.120;8.764;2023-06-10T02:11:59;101884.06;;;15.95;68.75
54920;BME280;63804;53.120;8.764;2023-06-10T02:14:26;101883.13;;;15.84;69.06
54920;BME280;63804;53.120;8.764;2023-06-10T02:16:53;101888.22;;;15.88;69.10
54920;BME280;63804;53.120;8.764;2023-06-10T02:19:23;101887.38;;;15.76;69.44
54920;BME280;63804;53.120;8.764;2023-06-10T02:21:52;101898.53;;;15.81;69.16
54920;BME280;63804;53.120;8.764;2023-06-10T02:24:19;101897.66;;;15.69;69.68
54920;BME280;63804;53.120;8.764;2023-06-10T02:26:46;101907.38;;;15.70;69.80
54920;BME280;63804;53.120;8.764;2023-06-10T02:29:14;101908.28;;;15.58;70.32
54920;BME280;63804;53.120;8.764;2023-06-10T02:31:42;101912.00;;;15.68;69.89
54920;BME280;63804;53.120;8.764;2023-06-10T02:34:09;101913.31;;;15.74;69.93
54920;BME280;63804;53.120;8.764;2023-06-10T02:36:36;101918.31;;;15.78;69.61
54920;BME280;63804;53.120;8.764;2023-06-10T02:39:03;101920.28;;;15.88;69.67
54920;BME280;63804;53.120;8.764;2023-06-10T02:41:31;101917.34;;;15.91;69.57
54920;BME280;63804;53.120;8.764;2023-06-10T02:43:58;101912.63;;;15.94;69.60
54920;BME280;63804;53.120;8.764;2023-06-10T02:46:25;101919.56;;;15.97;69.94
54920;BME280;63804;53.120;8.764;2023-06-10T02:48:53;101917.97;;;16.05;69.85
54920;BME280;63804;53.120;8.764;2023-06-10T02:51:20;101917.75;;;16.20;69.30
54920;BME280;63804;53.120;8.764;2023-06-10T02:53:47;101916.69;;;16.22;69.57
54920;BME280;63804;53.120;8.764;2023-06-10T02:56:18;101918.22;;;16.25;69.71
54920;BME280;63804;53.120;8.764;2023-06-10T02:58:45;101916.06;;;16.30;69.50
54920;BME280;63804;53.120;8.764;2023-06-10T03:01:14;101910.72;;;16.30;69.41
54920;BME280;63804;53.120;8.764;2023-06-10T03:03:42;101913.25;;;16.31;69.59
54920;BME280;63804;53.120;8.764;2023-06-10T03:06:10;101908.03;;;16.30;69.99
54920;BME280;63804;53.120;8.764;2023-06-10T03:08:37;101906.59;;;16.26;70.13
54920;BME280;63804;53.120;8.764;2023-06-10T03:11:05;101905.84;;;16.24;70.24
54920;BME280;63804;53.120;8.764;2023-06-10T03:13:32;101905.63;;;16.27;70.15
54920;BME280;63804;53.120;8.764;2023-06-10T03:15:59;101906.59;;;16.26;70.21
54920;BME280;63804;53.120;8.764;2023-06-10T03:18:27;101908.16;;;16.28;70.07
54920;BME280;63804;53.120;8.764;2023-06-10T03:20:55;101916.91;;;16.30;70.08
54920;BME280;63804;53.120;8.764;2023-06-10T03:23:23;101901.25;;;16.15;70.60
54920;BME280;63804;53.120;8.764;2023-06-10T03:25:51;101905.13;;;16.22;70.10
54920;BME280;63804;53.120;8.764;2023-06-10T03:28:18;101905.00;;;16.23;69.89
54920;BME280;63804;53.120;8.764;2023-06-10T03:30:45;101904.25;;;16.32;69.60
54920;BME280;63804;53.120;8.764;2023-06-10T03:33:13;101911.06;;;16.37;69.39
54920;BME280;63804;53.120;8.764;2023-06-10T03:35:40;101911.44;;;16.32;69.66
54920;BME280;63804;53.120;8.764;2023-06-10T03:38:08;101922.75;;;16.36;69.62
54920;BME280;63804;53.120;8.764;2023-06-10T03:40:35;101921.66;;;16.27;69.65
54920;BME280;63804;53.120;8.764;2023-06-10T03:43:02;101927.38;;;16.33;69.53
54920;BME280;63804;53.120;8.764;2023-06-10T03:45:30;101919.59;;;16.30;69.29
54920;BME280;63804;53.120;8.764;2023-06-10T03:47:57;101926.88;;;16.28;69.00
54920;BME280;63804;53.120;8.764;2023-06-10T03:50:24;101922.63;;;16.26;69.14
54920;BME280;63804;53.120;8.764;2023-06-10T03:52:53;101919.56;;;16.08;69.65
54920;BME280;63804;53.120;8.764;2023-06-10T03:55:20;101921.63;;;16.04;69.48
54920;BME280;63804;53.120;8.764;2023-06-10T03:57:49;101914.00;;;16.11;69.05
54920;BME280;63804;53.120;8.764;2023-06-10T04:00:16;101923.47;;;16.04;69.30
54920;BME280;63804;53.120;8.764;2023-06-10T04:02:44;101929.78;;;16.03;69.02
54920;BME280;63804;53.120;8.764;2023-06-10T04:05:17;101924.91;;;16.08;68.78
54920;BME280;63804;53.120;8.764;2023-06-10T04:07:45;101930.00;;;16.00;68.98
54920;BME280;63804;53.120;8.764;2023-06-10T04:10:13;101923.31;;;16.05;68.88
54920;BME280;63804;53.120;8.764;2023-06-10T04:12:40;101934.63;;;16.09;68.95
54920;BME280;63804;53.120;8.764;2023-06-10T04:15:08;101934.78;;;16.19;68.54
54920;BME280;63804;53.120;8.764;2023-06-10T04:17:36;101935.00;;;16.16;68.47
54920;BME280;63804;53.120;8.764;2023-06-10T04:20:03;101931.97;;;16.20;68.46
54920;BME280;63804;53.120;8.764;2023-06-10T04:22:33;101936.34;;;16.21;68.40
54920;BME280;63804;53.120;8.764;2023-06-10T04:25:00;101931.13;;;16.20;68.38
54920;BME280;63804;53.120;8.764;2023-06-10T04:27:28;101929.19;;;16.11;68.43
54920;BME280;63804;53.120;8.764;2023-06-10T04:29:55;101938.06;;;16.11;68.24
54920;BME280;63804;53.120;8.764;2023-06-10T04:32:22;101929.44;;;16.19;67.93
54920;BME280;63804;53.120;8.764;2023-06-10T04:34:50;101936.84;;;16.26;67.79
54920;BME280;63804;53.120;8.764;2023-06-10T04:37:17;101936.94;;;16.25;67.68
54920;BME280;63804;53.120;8.764;2023-06-10T04:39:45;101937.94;;;16.24;67.74
54920;BME280;63804;53.120;8.764;2023-06-10T04:42:12;101936.00;;;16.26;67.66
54920;BME280;63804;53.120;8.764;2023-06-10T04:44:39;101933.94;;;16.29;67.35
54920;BME280;63804;53.120;8.764;2023-06-10T04:47:07;101940.75;;;16.33;67.10
54920;BME280;63804;53.120;8.764;2023-06-10T04:49:34;101938.16;;;16.32;66.93
54920;BME280;63804;53.120;8.764;2023-06-10T04:52:03;101937.56;;;16.17;67.09
54920;BME280;63804;53.120;8.764;2023-06-10T04:54:31;101941.06;;;16.18;67.23
54920;BME280;63804;53.120;8.764;2023-06-10T04:56:59;101943.75;;;16.18;67.09
54920;BME280;63804;53.120;8.764;2023-06-10T04:59:27;101935.47;;;16.09;67.35
54920;BME280;63804;53.120;8.764;2023-06-10T05:01:55;101938.06;;;16.11;67.22
54920;BME280;63804;53.120;8.764;2023-06-10T05:04:22;101937.56;;;16.17;67.06
54920;BME280;63804;53.120;8.764;2023-06-10T05:06:49;101946.06;;;16.22;66.86
54920;BME280;63804;53.120;8.764;2023-06-10T05:09:16;101934.88;;;16.28;66.47
54920;BME280;63804;53.120;8.764;2023-06-10T05:11:43;101937.31;;;16.31;66.35
54920;BME280;63804;53.120;8.764;2023-06-10T05:14:11;101938.31;;;16.30;66.57
54920;BME280;63804;53.120;8.764;2023-06-10T05:16:39;101933.19;;;16.27;66.39
54920;BME280;63804;53.120;8.764;2023-06-10T05:19:06;101936.00;;;16.37;66.20
54920;BME280;63804;53.120;8.764;2023-06-10T05:21:34;101928.44;;;16.42;65.89
54920;BME280;63804;53.120;8.764;2023-06-10T05:24:01;101937.78;;;16.48;65.94
54920;BME280;63804;53.120;8.764;2023-06-10T05:26:29;101930.75;;;16.47;66.06
54920;BME280;63804;53.120;8.764;2023-06-10T05:28:58;101937.44;;;16.52;65.92
54920;BME280;63804;53.120;8.764;2023-06-10T05:31:25;101942.66;;;16.54;65.74
54920;BME280;63804;53.120;8.764;2023-06-10T05:33:53;101944.13;;;16.47;65.80
54920;BME280;63804;53.120;8.764;2023-06-10T05:36:20;101944.72;;;16.50;65.71
54920;BME280;63804;53.120;8.764;2023-06-10T05:38:47;101943.50;;;16.54;65.36
54920;BME280;63804;53.120;8.764;2023-06-10T05:41:14;101939.75;;;16.57;65.37
54920;BME280;63804;53.120;8.764;2023-06-10T05:43:41;101952.13;;;16.69;65.13
54920;BME280;63804;53.120;8.764;2023-06-10T05:46:09;101946.19;;;16.77;64.58
54920;BME280;63804;53.120;8.764;2023-06-10T05:48:36;101937.44;;;16.75;64.52
54920;BME280;63804;53.120;8.764;2023-06-10T05:51:03;101932.31;;;16.72;64.83
54920;BME280;63804;53.120;8.764;2023-06-10T05:53:31;101927.69;;;16.63;64.89
54920;BME280;63804;53.120;8.764;2023-06-10T05:55:59;101941.44;;;16.69;64.67
54920;BME280;63804;53.120;8.764;2023-06-10T05:58:26;101937.94;;;16.80;64.43
54920;BME280;63804;53.120;8.764;2023-06-10T06:00:54;101944.50;;;16.87;64.30
54920;BME280;63804;53.120;8.764;2023-06-10T06:03:21;101934.47;;;17.00;63.72
54920;BME280;63804;53.120;8.764;2023-06-10T06:05:48;101938.84;;;17.01;63.69
54920;BME280;63804;53.120;8.764;2023-06-10T06:08:15;101940.91;;;16.98;64.00
54920;BME280;63804;53.120;8.764;2023-06-10T06:10:45;101942.41;;;16.91;64.17
54920;BME280;63804;53.120;8.764;2023-06-10T06:13:14;101942.03;;;16.95;63.92
54920;BME280;63804;53.120;8.764;2023-06-10T06:15:41;101952.47;;;17.10;63.56
54920;BME280;63804;53.120;8.764;2023-06-10T06:18:08;101951.72;;;17.08;63.57
54920;BME280;63804;53.120;8.764;2023-06-10T06:20:35;101957.47;;;17.03;63.54
54920;BME280;63804;53.120;8.764;2023-06-10T06:23:03;101967.56;;;16.99;63.63
54920;BME280;63804;53.120;8.764;2023-06-10T06:25:30;101964.88;;;16.99;63.44
54920;BME280;63804;53.120;8.764;2023-06-10T06:27:57;101968.16;;;17.03;63.63
54920;BME280;63804;53.120;8.764;2023-06-10T06:30:24;101963.28;;;17.08;63.33
54920;BME280;63804;53.120;8.764;2023-06-10T06:32:51;101960.81;;;17.16;62.95
54920;BME280;63804;53.120;8.764;2023-06-10T06:35:19;101959.34;;;17.23;63.07
54920;BME280;63804;53.120;8.764;2023-06-10T06:37:46;101963.75;;;17.13;63.43
54920;BME280;63804;53.120;8.764;2023-06-10T06:40:13;101964.00;;;17.21;63.40
54920;BME280;63804;53.120;8.764;2023-06-10T06:42:41;101965.50;;;17.35;63.23
54920;BME280;63804;53.120;8.764;2023-06-10T06:45:08;101962.69;;;17.48;62.60
54920;BME280;63804;53.120;8.764;2023-06-10T06:47:36;101954.41;;;17.40;62.44
54920;BME280;63804;53.120;8.764;2023-06-10T06:50:03;101957.19;;;17.17;63.27
54920;BME280;63804;53.120;8.764;2023-06-10T06:52:31;101951.88;;;17.06;63.63
54920;BME280;63804;53.120;8.764;2023-06-10T06:54:58;101953.56;;;17.07;63.79
54920;BME280;63804;53.120;8.764;2023-06-10T06:57:25;101945.31;;;16.99;64.03
54920;BME280;63804;53.120;8.764;2023-06-10T06:59:52;101951.88;;;17.06;64.23
54920;BME280;63804;53.120;8.764;2023-06-10T07:02:19;101956.22;;;17.18;63.77
54920;BME280;63804;53.120;8.764;2023-06-10T07:04:47;101958.50;;;17.23;63.99
54920;BME280;63804;53.120;8.764;2023-06-10T07:07:16;101960.19;;;17.24;64.03
54920;BME280;63804;53.120;8.764;2023-06-10T07:09:44;101952.16;;;17.24;64.10
54920;BME280;63804;53.120;8.764;2023-06-10T07:12:11;101950.09;;;17.16;63.88
54920;BME280;63804;53.120;8.764;2023-06-10T07:14:38;101952.03;;;17.25;63.40
54920;BME280;63804;53.120;8.764;2023-06-10T07:17:05;101955.78;;;17.34;63.39
54920;BME280;63804;53.120;8.764;2023-06-10T07:19:33;101942.59;;;17.42;63.29
54920;BME280;63804;53.120;8.764;2023-06-10T07:22:00;101954.50;;;17.49;63.14
54920;BME280;63804;53.120;8.764;2023-06-10T07:24:27;101957.38;;;17.58;63.23
54920;BME280;63804;53.120;8.764;2023-06-10T07:26:54;101962.09;;;17.65;62.52
54920;BME280;63804;53.120;8.764;2023-06-10T07:29:22;101965.75;;;17.64;62.73
54920;BME280;63804;53.120;8.764;2023-06-10T07:31:49;101955.03;;;17.64;62.93
54920;BME280;63804;53.120;8.764;2023-06-10T07:34:16;101956.22;;;17.71;62.58
54920;BME280;63804;53.120;8.764;2023-06-10T07:36:43;101953.28;;;17.74;62.47
54920;BME280;63804;53.120;8.764;2023-06-10T07:39:11;101956.09;;;17.73;62.18
54920;BME280;63804;53.120;8.764;2023-06-10T07:41:38;101960.84;;;17.69;62.20
54920;BME280;63804;53.120;8.764;2023-06-10T07:44:05;101965.59;;;17.77;62.06
54920;BME280;63804;53.120;8.764;2023-06-10T07:46:32;101955.91;;;17.86;62.01
54920;BME280;63804;53.120;8.764;2023-06-10T07:48:59;101953.72;;;17.91;62.09
54920;BME280;63804;53.120;8.764;2023-06-10T07:51:27;101954.16;;;17.96;61.89
54920;BME280;63804;53.120;8.764;2023-06-10T07:53:54;101958.00;;;18.03;62.06
54920;BME280;63804;53.120;8.764;2023-06-10T07:56:21;101951.53;;;18.06;61.67
54920;BME280;63804;53.120;8.764;2023-06-10T07:58:49;101951.81;;;18.02;61.87
54920;BME280;63804;53.120;8.764;2023-06-10T08:01:16;101948.38;;;18.00;61.94
54920;BME280;63804;53.120;8.764;2023-06-10T08:03:43;101945.44;;;18.03;61.84
54920;BME280;63804;53.120;8.764;2023-06-10T08:06:11;101943.09;;;18.10;61.93
54920;BME280;63804;53.120;8.764;2023-06-10T08:08:38;101947.13;;;18.25;61.40
54920;BME280;63804;53.120;8.764;2023-06-10T08:11:13;101944.03;;;18.30;61.21
54920;BME280;63804;53.120;8.764;2023-06-10T08:13:40;101951.25;;;18.30;61.14
54920;BME280;63804;53.120;8.764;2023-06-10T08:16:07;101947.97;;;18.26;60.95
54920;BME280;63804;53.120;8.764;2023-06-10T08:18:35;101952.66;;;18.34;61.15
54920;BME280;63804;53.120;8.764;2023-06-10T08:21:02;101947.75;;;18.39;60.63
54920;BME280;63804;53.120;8.764;2023-06-10T08:23:29;101943.78;;;18.33;60.35
54920;BME280;63804;53.120;8.764;2023-06-10T08:25:57;101937.69;;;18.31;60.47
54920;BME280;63804;53.120;8.764;2023-06-10T08:28:25;101939.25;;;18.34;60.43
54920;BME280;63804;53.120;8.764;2023-06-10T08:30:52;101936.16;;;18.38;61.11
54920;BME280;63804;53.120;8.764;2023-06-10T08:33:23;101931.84;;;18.47;61.21
54920;BME280;63804;53.120;8.764;2023-06-10T08:35:50;101936.81;;;18.61;60.74
54920;BME280;63804;53.120;8.764;2023-06-10T08:38:17;101937.97;;;18.68;60.68
54920;BME280;63804;53.120;8.764;2023-06-10T08:40:44;101923.91;;;18.76;60.15
54920;BME280;63804;53.120;8.764;2023-06-10T08:43:34;101924.19;;;18.83;60.08
54920;BME280;63804;53.120;8.764;2023-06-10T08:46:04;101930.41;;;18.83;60.14
54920;BME280;63804;53.120;8.764;2023-06-10T08:48:34;101928.31;;;18.87;59.97
54920;BME280;63804;53.120;8.764;2023-06-10T08:51:04;101925.34;;;18.90;59.83
54920;BME280;63804;53.120;8.764;2023-06-10T08:53:34;101927.91;;;19.01;59.54
54920;BME280;63804;53.120;8.764;2023-06-10T08:56:04;101916.19;;;19.12;58.78
54920;BME280;63804;53.120;8.764;2023-06-10T08:58:32;101916.88;;;19.14;58.85
54920;BME280;63804;53.120;8.764;2023-06-10T09:01:08;101924.38;;;19.10;59.12
54920;BME280;63804;53.120;8.764;2023-06-10T09:03:37;101917.16;;;19.11;59.01
54920;BME280;63804;53.120;8.764;2023-06-10T09:06:05;101918.72;;;19.13;59.19
54920;BME280;63804;53.120;8.764;2023-06-10T09:08:33;101923.81;;;19.16;59.17
54920;BME280;63804;53.120;8.764;2023-06-10T09:11:02;101913.50;;;19.21;58.62
54920;BME280;63804;53.120;8.764;2023-06-10T09:13:29;101911.81;;;19.20;58.34
54920;BME280;63804;53.120;8.764;2023-06-10T09:15:56;101912.63;;;19.31;58.14
54920;BME280;63804;53.120;8.764;2023-06-10T09:18:28;101909.25;;;19.38;58.19
54920;BME280;63804;53.120;8.764;2023-06-10T09:20:55;101910.38;;;19.45;58.66
54920;BME280;63804;53.120;8.764;2023-06-10T09:23:23;101922.53;;;19.49;58.37
54920;BME280;63804;53.120;8.764;2023-06-10T09:25:57;101917.44;;;19.56;58.12
54920;BME280;63804;53.120;8.764;2023-06-10T09:28:27;101925.66;;;19.64;57.94
54920;BME280;63804;53.120;8.764;2023-06-10T09:31:03;101919.44;;;19.74;57.00
54920;BME280;63804;53.120;8.764;2023-06-10T09:33:31;101920.16;;;19.66;57.40
54920;BME280;63804;53.120;8.764;2023-06-10T09:36:01;101913.22;;;19.73;57.22
54920;BME280;63804;53.120;8.764;2023-06-10T09:38:32;101919.41;;;19.83;56.39
54920;BME280;63804;53.120;8.764;2023-06-10T09:41:00;101919.53;;;19.91;56.03
54920;BME280;63804;53.120;8.764;2023-06-10T09:43:42;101916.56;;;19.94;56.00
54920;BME280;63804;53.120;8.764;2023-06-10T09:46:16;101914.97;;;20.02;55.10
54920;BME280;63804;53.120;8.764;2023-06-10T09:48:46;101908.31;;;20.06;54.52
54920;BME280;63804;53.120;8.764;2023-06-10T09:51:14;101908.31;;;20.06;54.39
54920;BME280;63804;53.120;8.764;2023-06-10T09:53:48;101911.41;;;20.11;54.17
54920;BME280;63804;53.120;8.764;2023-06-10T09:56:17;101899.50;;;20.13;54.48
54920;BME280;63804;53.120;8.764;2023-06-10T09:58:45;101902.47;;;20.20;54.95
54920;BME280;63804;53.120;8.764;2023-06-10T10:01:14;101900.72;;;20.29;54.18
54920;BME280;63804;53.120;8.764;2023-06-10T10:03:51;101909.59;;;20.39;53.34
54920;BME280;63804;53.120;8.764;2023-06-10T10:06:20;101901.91;;;20.44;52.91
54920;BME280;63804;53.120;8.764;2023-06-10T10:08:49;101906.28;;;20.45;53.09
54920;BME280;63804;53.120;8.764;2023-06-10T10:11:19;101903.06;;;20.51;53.11
54920;BME280;63804;53.120;8.764;2023-06-10T10:13:52;101900.75;;;20.56;53.49
54920;BME280;63804;53.120;8.764;2023-06-10T10:16:30;101896.53;;;20.72;53.67
54920;BME280;63804;53.120;8.764;2023-06-10T10:19:06;101907.44;;;20.80;52.97
54920;BME280;63804;53.120;8.764;2023-06-10T10:21:43;101899.88;;;20.83;52.35
54920;BME280;63804;53.120;8.764;2023-06-10T10:24:18;101903.06;;;20.97;52.19
54920;BME280;63804;53.120;8.764;2023-06-10T10:26:50;101898.81;;;20.94;52.33
54920;BME280;63804;53.120;8.764;2023-06-10T10:29:25;101892.09;;;20.98;51.66
54920;BME280;63804;53.120;8.764;2023-06-10T10:31:56;101900.34;;;20.97;51.68
54920;BME280;63804;53.120;8.764;2023-06-10T10:34:37;101902.06;;;21.15;50.78
54920;BME280;63804;53.120;8.764;2023-06-10T10:37:07;101893.81;;;21.17;50.49
54920;BME280;63804;53.120;8.764;2023-06-10T10:39:36;101892.34;;;21.23;50.34
54920;BME280;63804;53.120;8.764;2023-06-10T10:42:04;101888.81;;;21.22;50.23
54920;BME280;63804;53.120;8.764;2023-06-10T10:44:32;101884.81;;;21.26;50.27
54920;BME280;63804;53.120;8.764;2023-06-10T10:47:03;101889.16;;;21.37;49.53
54920;BME280;63804;53.120;8.764;2023-06-10T10:49:32;101890.91;;;21.46;48.63
54920;BME280;63804;53.120;8.764;2023-06-10T10:52:01;101894.25;;;21.48;47.95
54920;BME280;63804;53.120;8.764;2023-06-10T10:54:35;101894.56;;;21.63;46.45
54920;BME280;63804;53.120;8.764;2023-06-10T10:57:11;101886.63;;;21.61;46.35
54920;BME280;63804;53.120;8.764;2023-06-10T11:02:32;101885.13;;;21.67;44.43
54920;BME280;63804;53.120;8.764;2023-06-10T11:05:00;101892.78;;;21.72;44.58
54920;BME280;63804;53.120;8.764;2023-06-10T11:07:31;101889.13;;;21.81;44.52
54920;BME280;63804;53.120;8.764;2023-06-10T11:10:09;101877.38;;;21.90;44.03
54920;BME280;63804;53.120;8.764;2023-06-10T11:15:13;101867.91;;;21.86;43.67
54920;BME280;63804;53.120;8.764;2023-06-10T11:29:00;101867.03;;;22.11;41.39
54920;BME280;63804;53.120;8.764;2023-06-10T11:31:33;101861.69;;;22.20;40.88
54920;BME280;63804;53.120;8.764;2023-06-10T11:34:03;101858.72;;;22.31;41.17
54920;BME280;63804;53.120;8.764;2023-06-10T11:36:33;101864.13;;;22.39;39.68
54920;BME280;63804;53.120;8.764;2023-06-10T11:39:04;101869.22;;;22.42;39.25
54920;BME280;63804;53.120;8.764;2023-06-10T11:41:32;101863.19;;;22.48;39.07
54920;BME280;63804;53.120;8.764;2023-06-10T11:44:10;101855.94;;;22.65;38.70
54920;BME280;63804;53.120;8.764;2023-06-10T11:46:39;101855.81;;;22.67;39.31
54920;BME280;63804;53.120;8.764;2023-06-10T11:49:09;101847.19;;;22.71;38.81
54920;BME280;63804;53.120;8.764;2023-06-10T11:51:38;101857.50;;;22.76;38.10
54920;BME280;63804;53.120;8.764;2023-06-10T11:54:10;101850.41;;;22.75;38.38
54920;BME280;63804;53.120;8.764;2023-06-10T11:56:37;101851.41;;;22.74;38.50
54920;BME280;63804;53.120;8.764;2023-06-10T11:59:05;101841.63;;;22.73;38.88
54920;BME280;63804;53.120;8.764;2023-06-10T12:01:36;101845.53;;;22.86;39.30
54920;BME280;63804;53.120;8.764;2023-06-10T12:04:08;101841.81;;;22.87;38.19
54920;BME280;63804;53.120;8.764;2023-06-10T12:06:40;101847.75;;;22.91;38.97
54920;BME280;63804;53.120;8.764;2023-06-10T12:11:52;101829.19;;;22.96;38.91
54920;BME280;63804;53.120;8.764;2023-06-10T12:14:58;101831.22;;;23.19;38.00
54920;BME280;63804;53.120;8.764;2023-06-10T12:20:08;101826.16;;;23.07;38.33
54920;BME280;63804;53.120;8.764;2023-06-10T12:22:43;101824.13;;;23.18;37.94
54920;BME280;63804;53.120;8.764;2023-06-10T12:25:11;101823.44;;;23.32;37.79
54920;BME280;63804;53.120;8.764;2023-06-10T12:27:40;101822.06;;;23.44;37.75
54920;BME280;63804;53.120;8.764;2023-06-10T12:30:21;101820.19;;;23.53;37.30
54920;BME280;63804;53.120;8.764;2023-06-10T12:32:50;101816.97;;;23.49;37.40
54920;BME280;63804;53.120;8.764;2023-06-10T12:35:21;101808.72;;;23.51;37.34
54920;BME280;63804;53.120;8.764;2023-06-10T12:38:02;101807.84;;;23.58;36.79
54920;BME280;63804;53.120;8.764;2023-06-10T12:40:33;101812.41;;;23.50;37.50
54920;BME280;63804;53.120;8.764;2023-06-10T12:43:01;101798.03;;;23.57;35.48
54920;BME280;63804;53.120;8.764;2023-06-10T12:45:30;101797.69;;;23.69;34.51
54920;BME280;63804;53.120;8.764;2023-06-10T12:48:43;101799.72;;;23.75;34.97
54920;BME280;63804;53.120;8.764;2023-06-10T12:50:58;101802.06;;;23.86;34.57
54920;BME280;63804;53.120;8.764;2023-06-10T12:53:25;101803.69;;;23.95;34.57
54920;BME280;63804;53.120;8.764;2023-06-10T12:55:55;101794.03;;;24.01;34.47
54920;BME280;63804;53.120;8.764;2023-06-10T12:58:23;101796.22;;;24.05;34.12
54920;BME280;63804;53.120;8.764;2023-06-10T13:00:51;101797.84;;;24.15;33.39
54920;BME280;63804;53.120;8.764;2023-06-10T13:03:21;101793.13;;;24.17;33.02
54920;BME280;63804;53.120;8.764;2023-06-10T13:05:48;101789.38;;;24.18;33.22
54920;BME280;63804;53.120;8.764;2023-06-10T13:08:16;101790.00;;;24.28;33.43
54920;BME280;63804;53.120;8.764;2023-06-10T13:10:43;101792.19;;;24.32;33.10
54920;BME280;63804;53.120;8.764;2023-06-10T13:13:10;101798.09;;;24.36;33.45
54920;BME280;63804;53.120;8.764;2023-06-10T13:15:37;101789.19;;;24.59;33.43
54920;BME280;63804;53.120;8.764;2023-06-10T13:18:09;101789.19;;;24.59;34.45
54920;BME280;63804;53.120;8.764;2023-06-10T13:20:37;101782.25;;;24.56;34.04
54920;BME280;63804;53.120;8.764;2023-06-10T13:23:04;101773.03;;;24.42;33.88